Time;durP1;ratioP1;P1;durP2;ratioP2;P2;SDS_P1;SDS_P2;PMS_P1;PMS_P2;Temp;Humidity;BMP_temperature;BMP_pressure;BME280_temperature;BME280_humidity;BME280_pressure;Samples;Min_cycle;Max_cycle;Signal;HPM_P1;HPM_P2
2022/01/05 00:00:43;;;;;;;3.70;1.88;;;6.30;99.90;;;;;;10343204;28;20270;-65
2022/01/05 00:05:44;;;;;;;2.47;1.33;;;6.30;99.90;;;;;;10339278;28;20057;-65
2022/01/05 00:10:46;;;;;;;3.90;1.65;;;6.30;99.90;;;;;;10339132;28;20120;-65
2022/01/05 00:15:48;;;;;;;3.13;1.45;;;6.30;99.90;;;;;;10340979;28;20100;-65
2022/01/05 00:20:50;;;;;;;5.40;1.30;;;6.30;99.90;;;;;;10343987;28;20144;-65
2022/01/05 00:25:51;;;;;;;3.10;1.35;;;6.30;99.90;;;;;;10338820;28;20072;-65
2022/01/05 00:30:53;;;;;;;4.90;1.45;;;6.30;99.90;;;;;;10341575;28;20050;-65
2022/01/05 00:35:55;;;;;;;8.23;3.10;;;6.30;99.90;;;;;;10352971;28;20751;-64
2022/01/05 00:40:56;;;;;;;4.72;1.65;;;6.30;99.90;;;;;;10347067;28;20080;-64
2022/01/05 00:45:58;;;;;;;3.35;1.92;;;6.30;99.90;;;;;;10340308;28;20132;-64
2022/01/05 00:51:05;;;;;;;4.95;2.05;;;6.30;99.90;;;;;;10343379;28;20049;-64
2022/01/05 00:56:07;;;;;;;5.22;2.55;;;6.30;99.90;;;;;;10354449;28;20062;-64
2022/01/05 01:01:08;;;;;;;5.47;2.88;;;6.30;99.90;;;;;;10342316;28;20575;-64
2022/01/05 01:06:10;;;;;;;6.70;3.03;;;6.30;99.90;;;;;;10343656;28;20046;-64
2022/01/05 01:11:12;;;;;;;7.43;2.83;;;6.40;99.90;;;;;;10345110;28;22851;-64
2022/01/05 01:16:14;;;;;;;7.65;2.83;;;6.30;99.90;;;;;;10345041;28;20134;-64
2022/01/05 01:21:16;;;;;;;6.07;2.47;;;6.30;99.90;;;;;;10345054;28;20507;-64
2022/01/05 01:26:17;;;;;;;4.03;1.70;;;6.40;99.90;;;;;;10344322;28;20057;-64
2022/01/05 01:31:19;;;;;;;6.28;1.70;;;6.40;99.90;;;;;;10344299;28;20108;-64
2022/01/05 01:36:21;;;;;;;3.17;2.33;;;6.40;99.90;;;;;;10346320;28;20377;-65
2022/01/05 01:41:23;;;;;;;2.97;1.27;;;6.40;99.90;;;;;;10335464;28;20058;-65
2022/01/05 01:46:25;;;;;;;2.65;1.27;;;6.40;99.90;;;;;;10351502;28;20618;-65
2022/01/05 01:51:27;;;;;;;4.43;1.95;;;6.40;99.90;;;;;;10342399;28;20409;-65
2022/01/05 01:56:35;;;;;;;4.45;1.75;;;6.40;99.90;;;;;;10346363;28;20452;-65
2022/01/05 02:01:36;;;;;;;;;;;6.40;99.90;;;;;;10343580;28;20180;-64
2022/01/05 02:06:38;;;;;;;7.28;1.95;;;6.40;99.90;;;;;;10342132;28;19925;-64
2022/01/05 02:11:40;;;;;;;10.00;2.05;;;6.40;99.90;;;;;;10340538;28;20125;-64
2022/01/05 02:16:44;;;;;;;7.80;1.88;;;6.30;99.90;;;;;;10342556;28;20077;-64
2022/01/05 02:21:46;;;;;;;4.30;1.60;;;6.30;99.90;;;;;;10358005;28;20056;-63
2022/01/05 02:26:48;;;;;;;3.28;1.90;;;6.30;99.90;;;;;;10340850;28;20041;-62
2022/01/05 02:31:49;;;;;;;2.45;0.10;;;6.20;99.90;;;;;;10345734;28;20076;-62
2022/01/05 02:36:51;;;;;;;0.00;0.00;;;5.70;99.90;;;;;;10343204;28;20058;-63
2022/01/05 02:41:52;;;;;;;0.17;0.10;;;5.10;99.90;;;;;;10341900;28;20053;-63
2022/01/05 02:46:54;;;;;;;0.28;0.10;;;4.80;99.90;;;;;;10342734;28;20198;-63
2022/01/05 02:51:56;;;;;;;1.55;0.10;;;4.50;99.90;;;;;;10337577;28;20053;-63
2022/01/05 02:56:58;;;;;;;0.20;0.10;;;4.30;99.90;;;;;;10340100;28;20131;-63
2022/01/05 03:02:00;;;;;;;0.20;0.10;;;4.10;99.90;;;;;;10333174;28;20057;-63
2022/01/05 03:07:02;;;;;;;0.17;0.10;;;4.00;99.90;;;;;;10342774;28;20128;-63
2022/01/05 03:12:04;;;;;;;0.65;0.15;;;3.90;99.90;;;;;;10344833;28;20120;-63
2022/01/05 03:17:06;;;;;;;0.30;0.10;;;3.80;99.90;;;;;;10342408;28;20096;-63
2022/01/05 03:22:08;;;;;;;0.20;0.10;;;3.80;99.90;;;;;;10344108;28;20050;-63
2022/01/05 03:27:09;;;;;;;1.98;0.10;;;3.80;99.90;;;;;;10340076;28;20153;-63
2022/01/05 03:32:11;;;;;;;0.40;0.20;;;3.80;99.90;;;;;;10343873;28;20100;-63
2022/01/05 03:37:13;;;;;;;1.83;0.60;;;3.80;99.90;;;;;;10338309;28;20273;-63
2022/01/05 03:42:14;;;;;;;0.10;0.03;;;3.70;99.90;;;;;;10340423;28;20104;-63
2022/01/05 03:47:16;;;;;;;0.40;0.15;;;3.70;99.90;;;;;;10338458;28;20049;-64
2022/01/05 03:52:18;;;;;;;0.30;0.10;;;3.70;99.90;;;;;;10335496;28;20448;-64
2022/01/05 03:57:20;;;;;;;2.03;0.10;;;3.70;99.90;;;;;;10338392;28;20050;-63
2022/01/05 04:02:22;;;;;;;5.05;4.75;;;3.70;99.90;;;;;;10024081;28;20061;-64
2022/01/05 04:07:24;;;;;;;5.55;5.35;;;3.70;99.90;;;;;;9639672;28;20046;-64
2022/01/05 04:12:26;;;;;;;4.40;4.30;;;3.60;99.90;;;;;;9661643;28;20042;-64
2022/01/05 04:17:27;;;;;;;4.20;0.10;;;3.70;99.90;;;;;;10029103;28;20079;-64
2022/01/05 04:22:29;;;;;;;0.73;0.10;;;3.70;99.90;;;;;;10345105;28;20413;-64
2022/01/05 04:27:31;;;;;;;5.03;0.43;;;3.70;99.90;;;;;;10349890;28;20397;-64
2022/01/05 04:32:34;;;;;;;1.75;0.22;;;3.80;99.90;;;;;;10347180;28;20649;-64
2022/01/05 04:37:55;;;;;;;0.30;0.10;;;3.70;99.90;;;;;;10348002;28;20563;-64
2022/01/05 04:42:58;;;;;;;2.40;0.20;;;3.70;99.90;;;;;;10349853;28;20045;-63
2022/01/05 04:47:59;;;;;;;2.55;0.22;;;3.70;99.90;;;;;;10345674;28;20073;-63
2022/01/05 04:53:01;;;;;;;5.13;0.50;;;3.70;99.90;;;;;;10346957;28;20117;-63
2022/01/05 04:58:03;;;;;;;4.55;1.00;;;3.70;99.90;;;;;;10347903;28;20143;-63
2022/01/05 05:03:05;;;;;;;3.67;1.02;;;3.60;99.90;;;;;;10345421;28;20084;-63
2022/01/05 05:08:06;;;;;;;2.60;0.98;;;3.50;99.90;;;;;;10346442;28;20510;-63
2022/01/05 05:13:10;;;;;;;4.10;0.95;;;3.50;99.90;;;;;;10347681;28;20058;-63
2022/01/05 05:18:11;;;;;;;2.95;0.85;;;3.40;99.90;;;;;;10348490;28;20104;-63
2022/01/05 05:23:13;;;;;;;2.92;1.52;;;3.50;99.90;;;;;;10342067;28;20041;-63
2022/01/05 05:28:15;;;;;;;3.30;0.70;;;3.40;99.90;;;;;;10345395;28;20053;-63
2022/01/05 05:33:16;;;;;;;2.40;0.90;;;3.40;99.90;;;;;;10345493;28;20077;-62
2022/01/05 05:38:19;;;;;;;4.82;0.60;;;3.40;99.90;;;;;;10344481;28;20440;-62
2022/01/05 05:43:21;;;;;;;4.97;1.08;;;3.40;99.90;;;;;;10345402;28;20104;-61
2022/01/05 05:48:23;;;;;;;5.57;0.68;;;3.40;99.90;;;;;;10342697;28;20107;-62
2022/01/05 05:53:24;;;;;;;5.50;0.90;;;3.40;99.90;;;;;;10345238;28;20053;-63
2022/01/05 05:58:26;;;;;;;3.97;0.43;;;3.40;99.90;;;;;;10340069;28;20066;-63
2022/01/05 06:03:29;;;;;;;4.30;1.30;;;3.40;99.90;;;;;;10341761;28;20053;-62
2022/01/05 06:08:31;;;;;;;3.20;0.63;;;3.40;99.90;;;;;;10345726;28;20050;-62
2022/01/05 06:13:33;;;;;;;5.65;0.73;;;3.30;99.90;;;;;;10343687;28;20073;-63
2022/01/05 06:18:34;;;;;;;6.80;0.50;;;3.30;99.90;;;;;;10345762;28;20733;-62
2022/01/05 06:23:36;;;;;;;8.25;0.77;;;3.30;99.90;;;;;;10343852;28;20065;-63
2022/01/05 06:28:38;;;;;;;1.23;0.32;;;3.20;99.90;;;;;;10344186;28;20049;-63
2022/01/05 06:33:40;;;;;;;4.82;0.40;;;3.20;99.90;;;;;;10337922;28;20050;-63
2022/01/05 06:38:41;;;;;;;5.47;0.57;;;3.10;98.20;;;;;;10343171;28;20125;-63
2022/01/05 06:43:43;;;;;;;1.23;0.25;;;3.10;97.50;;;;;;10338076;28;20098;-63
2022/01/05 06:48:44;;;;;;;2.17;0.30;;;3.00;99.90;;;;;;10340589;28;20056;-63
2022/01/05 06:53:46;;;;;;;2.53;0.22;;;3.00;99.90;;;;;;10347723;28;20437;-63
2022/01/05 06:58:48;;;;;;;9.25;1.20;;;2.90;99.90;;;;;;10343797;28;20107;-64
2022/01/05 07:03:50;;;;;;;2.53;0.50;;;2.90;99.90;;;;;;10340229;28;20081;-63
2022/01/05 07:08:51;;;;;;;2.75;0.30;;;2.80;99.00;;;;;;10336357;28;20041;-65
2022/01/05 07:13:53;;;;;;;2.80;0.40;;;2.70;99.90;;;;;;10336347;28;20271;-65
2022/01/05 07:18:55;;;;;;;2.42;0.52;;;2.70;98.30;;;;;;10339659;28;20041;-65
2022/01/05 07:23:56;;;;;;;1.75;0.30;;;2.70;99.70;;;;;;10339184;28;20873;-64
2022/01/05 07:28:58;;;;;;;1.67;0.47;;;2.60;98.20;;;;;;10343380;28;20050;-64
2022/01/05 07:34:00;;;;;;;0.40;0.30;;;2.60;95.80;;;;;;10337516;28;20137;-64
2022/01/05 07:39:04;;;;;;;5.65;0.50;;;2.50;97.20;;;;;;10339713;28;20042;-64
2022/01/05 07:44:07;;;;;;;1.95;0.30;;;2.50;95.40;;;;;;10339239;28;20119;-64
2022/01/05 07:49:09;;;;;;;1.77;0.55;;;2.40;97.40;;;;;;10348133;28;20037;-64
2022/01/05 07:54:10;;;;;;;1.08;0.30;;;2.40;99.90;;;;;;10350161;28;20045;-64
2022/01/05 07:59:12;;;;;;;4.28;0.20;;;2.40;97.40;;;;;;10348104;28;20049;-64
2022/01/05 08:04:14;;;;;;;1.95;0.30;;;2.40;97.90;;;;;;10341695;28;21932;-64
2022/01/05 08:09:16;;;;;;;2.17;0.30;;;2.30;99.50;;;;;;10353791;28;20065;-64
2022/01/05 08:14:17;;;;;;;6.57;0.50;;;2.30;99.90;;;;;;10345149;28;20147;-64
2022/01/05 08:19:19;;;;;;;2.95;0.30;;;2.30;99.90;;;;;;10350954;28;20116;-64
2022/01/05 08:24:21;;;;;;;4.80;0.77;;;2.30;99.90;;;;;;10348340;28;20100;-64
2022/01/05 08:29:23;;;;;;;2.70;0.32;;;2.30;99.90;;;;;;10347616;28;20445;-65
2022/01/05 08:34:25;;;;;;;4.60;1.08;;;2.20;99.90;;;;;;10342709;28;20061;-65
2022/01/05 08:39:26;;;;;;;4.60;1.00;;;2.20;99.90;;;;;;10340379;28;20077;-64
2022/01/05 08:44:28;;;;;;;5.57;0.40;;;2.30;99.90;;;;;;10344961;28;20145;-64
2022/01/05 08:49:29;;;;;;;4.20;0.30;;;2.30;99.90;;;;;;10343317;28;20112;-64
2022/01/05 08:54:31;;;;;;;3.80;0.32;;;2.40;99.90;;;;;;10342876;28;20057;-64
2022/01/05 08:59:33;;;;;;;1.10;0.38;;;2.40;99.20;;;;;;10345366;28;20449;-63
2022/01/05 09:04:35;;;;;;;2.92;0.28;;;2.50;96.70;;;;;;10345955;28;20089;-64
2022/01/05 09:09:37;;;;;;;4.22;0.73;;;2.60;97.90;;;;;;10339235;28;20046;-64
2022/01/05 09:14:40;;;;;;;3.33;0.45;;;2.60;98.90;;;;;;10342349;28;20080;-63
2022/01/05 09:19:42;;;;;;;1.95;0.30;;;2.60;97.80;;;;;;10350954;28;20049;-64
2022/01/05 09:24:44;;;;;;;8.15;0.75;;;2.70;97.40;;;;;;10348654;28;20116;-63
2022/01/05 09:29:46;;;;;;;4.15;0.50;;;2.90;99.90;;;;;;10345919;28;20096;-64
2022/01/05 09:34:48;;;;;;;3.22;0.30;;;2.90;98.80;;;;;;10342228;28;20061;-64
2022/01/05 09:45:21;;;;;;;3.00;0.40;;;3.10;96.80;;;;;;10342191;28;20042;-64
2022/01/05 09:50:25;;;;;;;4.53;0.65;;;3.10;95.80;;;;;;10345851;28;20054;-64
2022/01/05 09:55:27;;;;;;;5.22;0.55;;;3.20;94.50;;;;;;10344687;28;20489;-65
2022/01/05 10:00:29;;;;;;;8.57;1.23;;;3.30;93.40;;;;;;10343909;28;20033;-64
2022/01/05 10:05:31;;;;;;;6.15;1.23;;;3.30;92.20;;;;;;10343103;28;20444;-65
2022/01/05 10:10:32;;;;;;;4.25;0.30;;;3.40;93.20;;;;;;10345209;28;20596;-64
2022/01/05 10:15:34;;;;;;;6.18;0.50;;;3.40;93.50;;;;;;10347082;28;20046;-65
2022/01/05 10:20:37;;;;;;;9.43;1.10;;;3.40;93.00;;;;;;10342902;28;20069;-64
2022/01/05 10:25:38;;;;;;;2.97;0.70;;;3.50;95.50;;;;;;10341942;28;20099;-64
2022/01/05 10:30:43;;;;;;;9.55;0.77;;;3.50;94.70;;;;;;10342063;28;20046;-64
2022/01/05 10:35:55;;;;;;;7.30;0.40;;;3.50;92.40;;;;;;10345172;28;20045;-64
2022/01/05 10:40:57;;;;;;;2.97;0.30;;;3.70;92.80;;;;;;10340651;28;20038;-64
2022/01/05 10:45:59;;;;;;;5.18;0.43;;;3.80;92.00;;;;;;10340866;28;20049;-64
2022/01/05 10:51:06;;;;;;;3.10;0.40;;;3.90;91.10;;;;;;10337378;28;20525;-64
2022/01/05 10:56:08;;;;;;;7.55;0.50;;;4.00;91.20;;;;;;10342075;28;20050;-64
2022/01/05 11:01:29;;;;;;;1.52;0.70;;;4.00;91.50;;;;;;10339854;28;20192;-64
2022/01/05 11:06:31;;;;;;;6.28;1.50;;;4.00;91.10;;;;;;10344603;28;20141;-63
2022/01/05 11:11:44;;;;;;;4.45;0.40;;;4.10;91.40;;;;;;10342120;28;20049;-64
2022/01/05 11:16:54;;;;;;;4.75;0.90;;;4.10;92.20;;;;;;10343592;28;20065;-63
2022/01/05 11:22:04;;;;;;;4.63;0.47;;;4.20;91.60;;;;;;10341162;28;20382;-64
2022/01/05 11:27:09;;;;;;;4.97;0.43;;;4.20;91.70;;;;;;10344151;28;20042;-63
2022/01/05 11:32:13;;;;;;;4.13;0.95;;;4.20;91.60;;;;;;10344026;28;20149;-64
2022/01/05 11:37:14;;;;;;;5.35;0.60;;;4.20;91.50;;;;;;10339875;28;20104;-64
2022/01/05 11:42:27;;;;;;;0.90;0.47;;;4.30;91.80;;;;;;10348174;28;20108;-64
2022/01/05 11:47:31;;;;;;;3.80;0.45;;;4.30;91.70;;;;;;10338892;28;20135;-64
2022/01/05 11:53:06;;;;;;;1.73;0.50;;;4.40;91.90;;;;;;10344377;28;20046;-63
2022/01/05 11:58:20;;;;;;;2.60;0.40;;;4.50;90.80;;;;;;10338982;28;20061;-63
2022/01/05 12:03:43;;;;;;;2.58;0.30;;;4.60;91.10;;;;;;10333258;28;20557;-64
2022/01/05 12:08:50;;;;;;;2.35;0.40;;;4.60;90.10;;;;;;10345653;28;20089;-63
2022/01/05 12:13:52;;;;;;;1.50;0.40;;;4.70;90.20;;;;;;10340465;28;20127;-63
2022/01/05 12:19:08;;;;;;;2.53;0.50;;;4.90;89.30;;;;;;10339144;28;20133;-63
2022/01/05 12:24:11;;;;;;;2.17;0.73;;;4.90;88.10;;;;;;10336777;28;20077;-62
2022/01/05 12:29:28;;;;;;;7.43;0.63;;;5.00;88.60;;;;;;10334912;28;20444;-63
2022/01/05 12:34:51;;;;;;;3.53;0.55;;;5.10;89.10;;;;;;10348405;28;20139;-63
2022/01/05 12:39:56;;;;;;;2.55;0.52;;;5.00;88.20;;;;;;10342715;28;20060;-63
2022/01/05 12:44:57;;;;;;;2.78;0.95;;;5.00;89.40;;;;;;10344143;28;20501;-64
2022/01/05 12:50:15;;;;;;;3.55;0.57;;;5.00;89.70;;;;;;10342315;28;20120;-63
2022/01/05 12:55:17;;;;;;;2.00;0.30;;;4.90;90.00;;;;;;10348345;28;20089;-63
2022/01/05 13:00:19;;;;;;;1.25;0.30;;;4.80;90.60;;;;;;10344603;28;20151;-63
2022/01/05 13:05:30;;;;;;;5.32;0.57;;;4.80;91.00;;;;;;10344309;28;20077;-62
2022/01/05 13:10:31;;;;;;;7.22;0.60;;;4.80;90.90;;;;;;10345219;28;20702;-63
2022/01/05 13:15:33;;;;;;;1.90;0.20;;;4.80;91.20;;;;;;10343208;28;20118;-65
2022/01/05 13:20:35;;;;;;;3.20;0.35;;;4.80;91.10;;;;;;10343718;28;20054;-63
2022/01/05 13:25:36;;;;;;;4.00;0.30;;;4.80;91.40;;;;;;10344631;28;20107;-63
2022/01/05 13:30:38;;;;;;;5.82;0.30;;;4.80;92.30;;;;;;10346605;28;20057;-63
2022/01/05 13:35:41;;;;;;;7.85;0.95;;;4.80;91.80;;;;;;10338784;28;20054;-63
2022/01/05 13:40:53;;;;;;;6.10;0.57;;;4.80;92.80;;;;;;10343890;28;20041;-63
2022/01/05 13:45:56;;;;;;;3.10;0.40;;;4.90;92.50;;;;;;10338788;28;20057;-63
2022/01/05 13:51:07;;;;;;;7.93;0.73;;;4.90;91.90;;;;;;10342832;28;20069;-63
2022/01/05 13:56:12;;;;;;;4.22;0.25;;;5.00;92.20;;;;;;10344193;28;20120;-63
2022/01/05 14:01:18;;;;;;;2.95;0.30;;;4.90;92.40;;;;;;10343858;28;20038;-63
2022/01/05 14:06:23;;;;;;;5.57;0.40;;;5.00;92.50;;;;;;10341825;28;20050;-63
2022/01/05 14:11:26;;;;;;;2.05;0.40;;;4.90;92.40;;;;;;10342931;28;20070;-63
2022/01/05 14:16:47;;;;;;;5.63;1.60;;;4.90;93.10;;;;;;10337935;28;20393;-62
2022/01/05 14:22:08;;;;;;;3.45;0.50;;;4.90;93.40;;;;;;10346036;28;20042;-63
2022/01/05 14:27:22;;;;;;;3.90;0.47;;;4.80;95.00;;;;;;10343082;28;20053;-62
2022/01/05 14:32:32;;;;;;;2.75;0.50;;;4.70;97.50;;;;;;10342525;28;20457;-62
2022/01/05 14:37:57;;;;;;;4.75;0.43;;;4.60;97.10;;;;;;10355593;28;20054;-63
2022/01/05 14:43:01;;;;;;;2.22;0.63;;;4.70;96.70;;;;;;10340317;28;20073;-63
2022/01/05 14:48:04;;;;;;;7.68;1.30;;;4.60;97.80;;;;;;10341349;28;20181;-63
2022/01/05 14:53:06;;;;;;;2.25;0.20;;;4.50;97.90;;;;;;10338638;28;20151;-62
2022/01/05 14:58:08;;;;;;;2.80;0.40;;;4.50;98.40;;;;;;10336935;28;20120;-63
2022/01/05 15:03:09;;;;;;;5.60;0.47;;;4.50;99.50;;;;;;10340440;28;20056;-63
2022/01/05 15:08:11;;;;;;;0.57;0.22;;;4.50;99.90;;;;;;10335990;28;20560;-63
2022/01/05 15:13:14;;;;;;;3.50;0.45;;;4.50;99.90;;;;;;10340320;28;20104;-63
2022/01/05 15:18:16;;;;;;;4.05;0.55;;;4.40;99.90;;;;;;10332130;28;20119;-63
2022/01/05 15:23:17;;;;;;;4.45;0.80;;;4.40;99.90;;;;;;10342507;28;20102;-63
2022/01/05 15:28:20;;;;;;;2.95;0.68;;;4.40;99.50;;;;;;10335362;28;20054;-62
2022/01/05 15:33:22;;;;;;;5.65;0.65;;;4.40;99.90;;;;;;10337201;28;20108;-63
2022/01/05 15:38:24;;;;;;;3.08;0.55;;;4.40;99.50;;;;;;10341961;28;20062;-63
2022/01/05 15:43:26;;;;;;;5.15;2.05;;;4.40;99.90;;;;;;10337521;28;20045;-63
2022/01/05 15:48:28;;;;;;;4.15;0.45;;;4.40;99.90;;;;;;10341999;28;20069;-63
2022/01/05 15:53:32;;;;;;;3.35;0.77;;;4.50;99.90;;;;;;10335469;28;20073;-63
2022/01/05 16:04:07;;;;;;;7.78;0.60;;;4.40;99.90;;;;;;10341277;28;20116;-61
2022/01/05 16:09:11;;;;;;;3.17;0.45;;;4.40;99.90;;;;;;10343887;28;20089;-63
2022/01/05 16:14:13;;;;;;;4.88;0.90;;;4.40;99.90;;;;;;10348866;28;20077;-63
2022/01/05 16:19:15;;;;;;;4.10;0.57;;;4.40;99.90;;;;;;10350616;28;20104;-63
2022/01/05 16:24:22;;;;;;;3.78;0.70;;;4.40;99.90;;;;;;10347481;28;20053;-62
2022/01/05 16:29:26;;;;;;;7.05;0.50;;;4.50;99.90;;;;;;10345706;28;20108;-63
2022/01/05 16:34:27;;;;;;;4.20;0.50;;;4.50;99.90;;;;;;10344660;28;20122;-62
2022/01/05 16:39:29;;;;;;;2.72;0.55;;;4.40;99.90;;;;;;10355100;28;20049;-63
2022/01/05 16:44:31;;;;;;;5.18;1.10;;;4.40;99.90;;;;;;10346521;28;20053;-63
2022/01/05 16:49:33;;;;;;;2.65;0.50;;;4.40;99.90;;;;;;10345674;28;20062;-63
2022/01/05 16:54:40;;;;;;;7.05;0.63;;;4.40;99.90;;;;;;10355951;28;20046;-64
2022/01/05 17:05:02;;;;;;;4.72;0.68;;;4.40;99.90;;;;;;10346139;28;20583;-62
2022/01/05 17:10:04;;;;;;;3.25;0.90;;;4.40;99.90;;;;;;10345154;28;20091;-62
2022/01/05 17:15:08;;;;;;;6.75;0.80;;;4.40;99.90;;;;;;10346686;28;20103;-64
2022/01/05 17:20:10;;;;;;;7.93;1.25;;;4.30;99.90;;;;;;10343832;28;20050;-63
2022/01/05 17:25:13;;;;;;;5.15;0.80;;;4.30;99.90;;;;;;10340847;28;20140;-63
2022/01/05 17:30:16;;;;;;;4.63;0.65;;;4.30;99.90;;;;;;10343583;28;20092;-62
2022/01/05 17:35:18;;;;;;;5.18;0.80;;;4.30;99.90;;;;;;10351220;28;20050;-63
2022/01/05 17:40:21;;;;;;;1.90;0.40;;;4.30;99.90;;;;;;10337417;28;20408;-62
2022/01/05 17:45:23;;;;;;;3.13;0.63;;;4.30;99.90;;;;;;10341291;28;20416;-64
2022/01/05 17:50:24;;;;;;;4.32;0.57;;;4.30;99.90;;;;;;10348147;28;20144;-64
2022/01/05 17:55:42;;;;;;;4.47;0.60;;;4.30;99.90;;;;;;10338682;28;20046;-63
2022/01/05 18:00:45;;;;;;;4.85;0.50;;;4.30;99.90;;;;;;10337462;28;20045;-63
2022/01/05 18:05:47;;;;;;;3.80;0.52;;;4.30;99.90;;;;;;10348205;28;20077;-63
2022/01/05 18:10:49;;;;;;;7.60;1.20;;;4.30;99.90;;;;;;10339346;28;20041;-63
2022/01/05 18:16:03;;;;;;;4.32;0.85;;;4.20;99.90;;;;;;10343222;28;20050;-63
2022/01/05 18:21:09;;;;;;;1.80;0.70;;;4.20;99.90;;;;;;10338592;28;20108;-64
2022/01/05 18:26:16;;;;;;;5.40;0.77;;;4.10;99.90;;;;;;10343535;28;20204;-63
2022/01/05 18:31:20;;;;;;;4.15;0.60;;;4.00;99.90;;;;;;10342442;28;20053;-63
2022/01/05 18:36:23;;;;;;;6.20;0.93;;;3.90;99.90;;;;;;10344670;28;20463;-63
2022/01/05 18:41:26;;;;;;;5.53;0.90;;;3.90;99.90;;;;;;10342843;28;20440;-62
2022/01/05 18:46:29;;;;;;;8.48;1.90;;;3.90;99.90;;;;;;10344367;28;20121;-63
2022/01/05 18:51:32;;;;;;;7.28;0.80;;;3.90;99.90;;;;;;10342749;28;20527;-62
2022/01/05 18:56:38;;;;;;;2.25;0.68;;;3.90;99.90;;;;;;10346915;28;20077;-63
2022/01/05 19:01:39;;;;;;;5.38;1.38;;;4.00;99.90;;;;;;10342650;28;20056;-63
2022/01/05 19:06:43;;;;;;;7.38;1.00;;;4.00;99.90;;;;;;10340844;28;20050;-63
2022/01/05 19:11:45;;;;;;;6.35;0.60;;;4.20;99.90;;;;;;10334276;28;20112;-63
2022/01/05 19:16:47;;;;;;;6.45;1.58;;;4.20;99.90;;;;;;10345477;28;20077;-63
2022/01/05 19:21:50;;;;;;;4.05;0.90;;;4.30;99.90;;;;;;10336856;28;20100;-63
2022/01/05 19:26:56;;;;;;;2.63;0.90;;;4.30;99.90;;;;;;10343781;28;20108;-63
2022/01/05 19:31:58;;;;;;;4.43;0.90;;;4.30;99.90;;;;;;10345384;28;20480;-63
2022/01/05 19:37:00;;;;;;;3.97;0.90;;;4.40;99.90;;;;;;10338011;28;20050;-63
2022/01/05 19:42:02;;;;;;;5.40;0.80;;;4.40;99.90;;;;;;10341069;28;20048;-64
2022/01/05 19:47:04;;;;;;;5.00;0.95;;;4.50;99.90;;;;;;10343154;28;20041;-63
2022/01/05 19:52:10;;;;;;;5.10;0.70;;;4.50;99.90;;;;;;10343811;28;20037;-64
2022/01/05 19:57:12;;;;;;;4.40;0.70;;;4.60;99.90;;;;;;10348226;28;20108;-64
2022/01/05 20:02:15;;;;;;;2.90;1.00;;;4.60;99.90;;;;;;10348746;28;20088;-64
2022/01/05 20:07:19;;;;;;;2.72;0.68;;;4.60;99.90;;;;;;10349137;28;20133;-64
2022/01/05 20:12:21;;;;;;;3.15;0.57;;;4.70;99.90;;;;;;10350648;28;20084;-64
2022/01/05 20:17:22;;;;;;;4.43;0.60;;;4.70;99.90;;;;;;10346616;28;20483;-64
2022/01/05 20:22:24;;;;;;;5.38;0.80;;;4.70;99.90;;;;;;10346030;28;20054;-64
2022/01/05 20:27:26;;;;;;;2.25;0.52;;;4.60;99.90;;;;;;10350713;28;20078;-63
2022/01/05 20:32:28;;;;;;;3.03;0.70;;;4.60;99.90;;;;;;10345779;28;20073;-64
2022/01/05 20:37:30;;;;;;;2.85;1.10;;;4.60;99.90;;;;;;10349958;28;20115;-64
2022/01/05 20:42:33;;;;;;;3.92;1.50;;;4.60;99.90;;;;;;10346166;28;20107;-63
2022/01/05 20:47:35;;;;;;;3.25;0.57;;;4.60;99.90;;;;;;10347350;28;20096;-64
2022/01/05 20:52:37;;;;;;;4.40;0.70;;;4.60;99.90;;;;;;10345809;28;20057;-63
2022/01/05 20:57:40;;;;;;;6.00;1.33;;;4.70;99.90;;;;;;10345414;28;20128;-64
2022/01/05 21:02:44;;;;;;;7.22;0.98;;;4.70;99.90;;;;;;10347452;28;20116;-64
2022/01/05 21:07:47;;;;;;;3.30;0.93;;;4.60;99.90;;;;;;10346611;28;20060;-64
2022/01/05 21:12:55;;;;;;;4.50;1.15;;;4.60;99.90;;;;;;10348955;28;20076;-63
2022/01/05 21:17:57;;;;;;;3.38;0.95;;;4.60;99.90;;;;;;10347731;28;20049;-63
2022/01/05 21:22:59;;;;;;;7.93;1.08;;;4.50;99.90;;;;;;10345504;28;20104;-64
2022/01/05 21:28:01;;;;;;;5.65;0.70;;;4.50;99.90;;;;;;10333421;28;20531;-64
2022/01/05 21:33:05;;;;;;;4.68;0.95;;;4.50;99.90;;;;;;10337558;28;20089;-64
2022/01/05 21:38:07;;;;;;;6.13;0.90;;;4.40;99.90;;;;;;10342323;28;20053;-63
2022/01/05 21:43:09;;;;;;;10.43;1.45;;;4.30;99.90;;;;;;10343634;28;20069;-64
2022/01/05 21:48:11;;;;;;;4.07;0.88;;;4.30;99.90;;;;;;10345404;28;20042;-63
2022/01/05 21:53:13;;;;;;;2.80;0.77;;;4.30;99.90;;;;;;10346643;28;20046;-63
2022/01/05 21:58:15;;;;;;;2.17;0.98;;;4.30;99.90;;;;;;10343969;28;20170;-64
2022/01/05 22:03:17;;;;;;;7.32;1.30;;;4.30;99.90;;;;;;10345662;28;20732;-64
2022/01/05 22:08:19;;;;;;;6.90;1.33;;;4.30;99.90;;;;;;10338474;28;20050;-64
2022/01/05 22:13:21;;;;;;;3.92;0.90;;;4.30;99.90;;;;;;10348550;28;20137;-64
2022/01/05 22:18:22;;;;;;;8.80;1.58;;;4.30;99.90;;;;;;10337827;28;20073;-64
2022/01/05 22:23:25;;;;;;;2.13;0.80;;;4.30;99.90;;;;;;10342314;28;20125;-63
2022/01/05 22:28:28;;;;;;;3.88;1.13;;;4.40;99.90;;;;;;10339967;28;20134;-64
2022/01/05 22:33:30;;;;;;;5.38;1.10;;;4.30;99.90;;;;;;10340492;28;20084;-64
2022/01/05 22:38:33;;;;;;;5.03;1.05;;;4.40;99.90;;;;;;10340842;28;20433;-64
2022/01/05 22:43:35;;;;;;;7.55;0.80;;;4.40;99.90;;;;;;10340992;28;20073;-64
2022/01/05 22:48:37;;;;;;;2.78;0.75;;;4.40;99.90;;;;;;10345748;28;20052;-64
2022/01/05 22:53:40;;;;;;;5.32;1.23;;;4.40;99.90;;;;;;10334995;28;20073;-64
2022/01/05 22:58:41;;;;;;;4.50;0.90;;;4.50;99.90;;;;;;10340949;28;20078;-63
2022/01/05 23:03:43;;;;;;;7.07;0.80;;;4.50;99.90;;;;;;10341965;28;20104;-63
2022/01/05 23:08:45;;;;;;;1.77;1.05;;;4.50;99.90;;;;;;10346157;28;20045;-63
2022/01/05 23:13:47;;;;;;;1.55;0.80;;;4.50;99.90;;;;;;10342302;28;20046;-63
2022/01/05 23:18:48;;;;;;;3.15;1.17;;;4.50;99.90;;;;;;10341042;28;20180;-64
2022/01/05 23:23:50;;;;;;;3.95;1.00;;;4.50;99.90;;;;;;10339987;28;20050;-63
2022/01/05 23:28:52;;;;;;;3.42;1.10;;;4.50;99.90;;;;;;10337729;28;20058;-63
2022/01/05 23:33:54;;;;;;;3.65;0.93;;;4.40;99.90;;;;;;10334799;28;20054;-63
2022/01/05 23:38:55;;;;;;;3.25;1.00;;;4.30;99.90;;;;;;10344878;28;20124;-64
2022/01/05 23:43:57;;;;;;;2.75;1.10;;;4.20;99.90;;;;;;10342059;28;20062;-63
2022/01/05 23:49:00;;;;;;;7.07;1.13;;;4.20;99.90;;;;;;10343641;28;20054;-64
2022/01/05 23:54:02;;;;;;;5.97;1.10;;;4.20;99.90;;;;;;10341869;28;20096;-63
2022/01/05 23:59:03;;;;;;;4.30;1.40;;;4.30;99.90;;;;;;10342227;28;20049;-63
